Time;durP1;ratioP1;P1;durP2;ratioP2;P2;SDS_P1;SDS_P2;PMS_P1;PMS_P2;Temp;Humidity;BMP_temperature;BMP_pressure;BME280_temperature;BME280_humidity;BME280_pressure;Samples;Min_cycle;Max_cycle;Signal;HPM_P1;HPM_P2
2022/05/16 00:00:39;;;;;;;7.70;6.63;;;;;;;17.46;59.68;95031.88;4143172;28;20119;-56
2022/05/16 00:02:41;;;;;;;9.43;7.25;;;;;;;17.50;59.49;95028.66;4142855;28;20060;-55
2022/05/16 00:04:45;;;;;;;10.90;7.53;;;;;;;17.55;59.40;95030.72;4142680;28;20049;-55
2022/05/16 00:06:47;;;;;;;11.35;7.03;;;;;;;17.54;59.47;95024.59;4142729;28;20058;-54
2022/05/16 00:08:48;;;;;;;9.32;6.10;;;;;;;17.51;59.66;95018.88;4141382;28;20148;-56
2022/05/16 00:10:50;;;;;;;10.80;6.90;;;;;;;17.53;59.53;95019.50;4143057;28;20236;-56
2022/05/16 00:12:52;;;;;;;10.25;6.63;;;;;;;17.54;59.84;95010.56;4142744;28;20111;-54
2022/05/16 00:14:54;;;;;;;8.90;6.80;;;;;;;17.59;59.20;95016.91;4142740;28;20053;-55
2022/05/16 00:16:56;;;;;;;11.60;6.57;;;;;;;17.59;59.15;95014.25;4142627;28;20054;-60
2022/05/16 00:18:57;;;;;;;11.25;6.85;;;;;;;17.60;59.15;95012.44;4142331;28;20116;-57
2022/05/16 00:20:59;;;;;;;10.07;6.65;;;;;;;17.59;58.78;95006.31;4141414;28;20052;-56
2022/05/16 00:23:01;;;;;;;9.00;6.10;;;;;;;17.60;58.84;95012.44;4132086;28;20160;-57
2022/05/16 00:25:06;;;;;;;8.43;5.97;;;;;;;17.61;58.25;95006.09;4142388;28;20057;-55
2022/05/16 00:27:08;;;;;;;7.53;5.20;;;;;;;17.56;57.65;95012.00;4142162;28;20053;-55
2022/05/16 00:29:10;;;;;;;6.95;6.00;;;;;;;17.56;57.63;95012.00;4142485;28;20175;-54
2022/05/16 00:31:11;;;;;;;8.55;5.68;;;;;;;17.54;57.73;95011.38;4142636;28;20057;-55
2022/05/16 00:33:13;;;;;;;6.13;5.43;;;;;;;17.50;57.89;95002.16;4142226;28;20475;-56
2022/05/16 00:35:19;;;;;;;6.85;5.47;;;;;;;17.49;57.93;95005.84;4142639;28;20656;-54
2022/05/16 00:37:21;;;;;;;9.10;5.40;;;;;;;17.44;58.63;95010.06;4142454;28;20100;-54
2022/05/16 00:39:23;;;;;;;7.97;6.13;;;;;;;17.40;58.90;95006.97;4140476;28;20049;-56
2022/05/16 00:41:25;;;;;;;9.00;6.00;;;;;;;17.36;58.73;95005.75;4141950;28;20863;-55
2022/05/16 00:43:55;;;;;;;8.40;6.40;;;;;;;17.36;58.71;95003.09;4141797;28;20049;-57
2022/05/16 00:45:57;;;;;;;6.95;5.85;;;;;;;17.36;58.82;95005.75;4141990;28;20065;-55
2022/05/16 00:47:59;;;;;;;8.65;5.90;;;;;;;17.35;59.24;95006.75;4141673;28;20108;-54
2022/05/16 00:50:02;;;;;;;8.73;6.57;;;;;;;17.27;59.73;95010.38;4142138;28;20080;-54
2022/05/16 00:52:18;;;;;;;7.45;6.05;;;;;;;17.20;59.42;95007.66;4140325;28;20207;-54
2022/05/16 00:54:24;;;;;;;7.28;6.15;;;;;;;17.10;59.58;95011.66;4140260;28;20057;-53
2022/05/16 00:56:26;;;;;;;7.32;5.90;;;;;;;17.05;59.88;95004.28;4132583;28;20080;-53
2022/05/16 00:58:28;;;;;;;11.32;6.43;;;;;;;17.05;60.08;95009.59;4142077;28;20050;-54
2022/05/16 01:00:35;;;;;;;10.18;6.43;;;;;;;17.04;60.11;95005.31;4142378;28;20231;-55
2022/05/16 01:05:00;;;;;;;8.70;6.95;;;;;;;16.97;60.98;95002.63;4142096;28;20057;-54
2022/05/16 01:07:03;;;;;;;10.93;7.25;;;;;;;17.00;61.02;94998.75;4142123;28;20475;-54
2022/05/16 01:09:05;;;;;;;10.23;6.50;;;;;;;16.97;61.09;94999.13;4140622;28;20050;-57
2022/05/16 01:11:10;;;;;;;9.68;6.53;;;;;;;16.93;60.54;95006.66;4142235;28;20510;-55
2022/05/16 01:13:12;;;;;;;7.90;6.40;;;;;;;16.88;60.85;94993.16;4140642;28;20522;-54
2022/05/16 01:15:48;;;;;;;9.55;6.65;;;;;;;16.88;60.83;95008.22;4142174;28;20525;-56
2022/05/16 01:17:50;;;;;;;7.43;5.75;;;;;;;16.86;61.15;94994.34;4142239;28;20375;-55
2022/05/16 01:19:52;;;;;;;11.57;6.13;;;;;;;16.84;61.17;94994.53;4141851;28;20141;-53
2022/05/16 01:21:59;;;;;;;8.35;6.63;;;;;;;16.87;61.16;94999.47;4142286;28;20108;-56
2022/05/16 01:24:06;;;;;;;7.25;6.28;;;;;;;16.85;60.97;95000.69;4135299;28;20046;-54
2022/05/16 01:26:13;;;;;;;9.13;6.07;;;;;;;16.85;60.81;94996.19;4142089;28;20053;-55
2022/05/16 01:28:18;;;;;;;7.78;6.57;;;;;;;16.86;60.60;95002.28;4142223;28;20046;-55
2022/05/16 01:30:25;;;;;;;9.85;7.13;;;;;;;16.84;60.56;94999.03;4141786;28;20497;-54
2022/05/16 01:32:27;;;;;;;13.00;6.95;;;;;;;16.87;60.49;94998.66;4140076;28;20127;-57
2022/05/16 01:34:29;;;;;;;11.00;6.78;;;;;;;16.84;60.49;95001.66;4138258;28;20049;-57
2022/05/16 01:36:31;;;;;;;8.68;7.15;;;;;;;16.77;60.71;95001.59;4142144;28;20053;-53
2022/05/16 01:38:33;;;;;;;7.97;6.78;;;;;;;16.67;61.21;95007.22;4140446;28;20073;-54
2022/05/16 01:40:35;;;;;;;8.57;6.90;;;;;;;16.67;61.69;95009.00;4141832;28;20108;-53
2022/05/16 01:42:37;;;;;;;7.93;7.00;;;;;;;16.68;61.52;95008.00;4140486;28;20148;-54
2022/05/16 01:44:39;;;;;;;8.82;7.03;;;;;;;16.65;61.63;95001.28;4141807;28;20050;-53
2022/05/16 01:46:41;;;;;;;9.20;6.68;;;;;;;16.64;61.84;95004.09;4141857;28;20073;-57
2022/05/16 01:48:43;;;;;;;11.20;6.93;;;;;;;16.63;61.81;95005.09;4141645;28;20054;-53
2022/05/16 01:50:46;;;;;;;9.38;6.93;;;;;;;16.65;61.61;95011.88;4141862;28;20463;-55
2022/05/16 01:52:48;;;;;;;8.93;7.13;;;;;;;16.63;61.93;95010.38;4141741;28;20074;-57
2022/05/16 01:54:49;;;;;;;14.80;7.57;;;;;;;16.62;61.95;95006.94;4143549;28;20498;-55
2022/05/16 01:56:51;;;;;;;11.95;7.32;;;;;;;16.62;62.21;95012.22;4140726;28;20139;-54
2022/05/16 01:58:53;;;;;;;9.02;7.50;;;;;;;16.62;61.97;95009.56;4143105;28;20057;-54
2022/05/16 02:00:55;;;;;;;9.95;7.97;;;;;;;16.61;62.04;95007.16;4144580;28;20103;-56
2022/05/16 02:02:57;;;;;;;9.93;7.50;;;;;;;16.56;62.21;95013.81;4144386;28;20088;-54
2022/05/16 02:04:58;;;;;;;12.25;7.80;;;;;;;16.57;62.35;95011.97;4144790;28;20145;-55
2022/05/16 02:07:00;;;;;;;13.70;8.32;;;;;;;16.54;62.31;95018.47;4144662;28;20116;-54
2022/05/16 02:09:02;;;;;;;13.32;7.47;;;;;;;16.55;62.16;95014.81;4142956;28;20057;-54
2022/05/16 02:11:05;;;;;;;12.38;7.38;;;;;;;16.40;62.42;95007.94;4144720;28;20065;-54
2022/05/16 02:13:08;;;;;;;10.20;7.93;;;;;;;16.37;62.40;95007.31;4144497;28;20507;-54
2022/05/16 02:15:20;;;;;;;9.55;6.85;;;;;;;16.29;62.36;95010.06;4144638;28;20056;-54
2022/05/16 02:17:22;;;;;;;9.73;7.47;;;;;;;15.92;62.95;95009.22;4144285;28;20077;-54
2022/05/16 02:19:24;;;;;;;10.50;6.78;;;;;;;15.49;63.36;95009.03;4144010;28;20414;-54
2022/05/16 02:26:06;;;;;;;8.32;6.43;;;;;;;15.64;62.97;95008.19;4144349;28;20578;-56
2022/05/16 02:28:14;;;;;;;13.77;6.93;;;;;;;15.79;62.13;95006.44;4144192;28;20046;-54
2022/05/16 02:30:22;;;;;;;7.25;5.72;;;;;;;15.89;61.76;95014.88;4144377;28;20050;-55
2022/05/16 02:32:24;;;;;;;8.77;6.28;;;;;;;15.96;61.71;95010.50;4142909;28;20459;-53
2022/05/16 02:34:26;;;;;;;7.70;6.25;;;;;;;15.97;61.64;95016.59;4143450;28;20418;-57
2022/05/16 02:36:28;;;;;;;8.45;5.95;;;;;;;15.95;61.48;95008.84;4143968;28;20107;-55
2022/05/16 02:38:29;;;;;;;7.40;5.30;;;;;;;15.94;61.42;95007.22;4142618;28;20473;-56
2022/05/16 02:40:32;;;;;;;9.80;5.78;;;;;;;15.99;61.78;95005.84;4144290;28;20128;-53
2022/05/16 02:42:35;;;;;;;8.60;5.23;;;;;;;16.06;61.59;95004.09;4143988;28;20079;-56
2022/05/16 02:44:38;;;;;;;10.00;6.53;;;;;;;16.11;61.37;94999.06;4143905;28;20652;-56
2022/05/16 02:46:40;;;;;;;10.13;5.85;;;;;;;16.14;60.83;94998.72;4144134;28;20057;-55
2022/05/16 02:48:42;;;;;;;9.70;5.95;;;;;;;16.14;61.15;94999.53;4143435;28;20119;-53
2022/05/16 02:50:44;;;;;;;12.18;7.28;;;;;;;16.13;61.85;94999.69;4143909;28;20127;-53
2022/05/16 02:52:45;;;;;;;13.45;7.20;;;;;;;16.10;62.29;95003.53;4143913;28;20049;-55
2022/05/16 02:54:47;;;;;;;10.77;7.20;;;;;;;16.07;62.29;95000.47;4142319;28;20049;-52
2022/05/16 02:56:49;;;;;;;10.35;7.72;;;;;;;16.08;62.43;95007.38;4143101;28;20054;-55
2022/05/16 02:58:50;;;;;;;10.82;7.28;;;;;;;16.06;62.49;94999.63;4142422;28;20086;-55
2022/05/16 03:00:53;;;;;;;10.15;7.13;;;;;;;16.08;62.54;95000.25;4143910;28;20049;-55
2022/05/16 03:02:55;;;;;;;11.10;7.40;;;;;;;16.10;62.59;95008.00;4143677;28;20172;-52
2022/05/16 03:04:57;;;;;;;9.32;6.68;;;;;;;16.12;62.62;95006.81;4142659;28;20575;-55
2022/05/16 03:06:59;;;;;;;10.55;7.30;;;;;;;16.11;62.66;95007.84;4143606;28;20198;-55
2022/05/16 03:09:01;;;;;;;8.55;7.65;;;;;;;16.12;62.65;95008.66;4142388;28;20528;-55
2022/05/16 03:11:03;;;;;;;8.98;6.93;;;;;;;16.16;62.68;95013.38;4143729;28;20045;-53
2022/05/16 03:13:05;;;;;;;12.20;7.50;;;;;;;16.12;62.55;95008.66;4140823;28;20062;-55
2022/05/16 03:15:07;;;;;;;12.43;7.30;;;;;;;16.11;62.48;95001.72;4143677;28;20119;-54
2022/05/16 03:17:09;;;;;;;10.45;7.78;;;;;;;16.08;62.24;95010.03;4143163;28;20418;-53
2022/05/16 03:19:11;;;;;;;10.07;7.20;;;;;;;16.07;62.29;95005.75;4142749;28;20062;-55
2022/05/16 03:21:15;;;;;;;11.85;8.10;;;;;;;16.04;62.45;95017.50;4141403;28;20054;-55
2022/05/16 03:23:17;;;;;;;10.77;8.05;;;;;;;15.95;62.89;95027.34;4125637;28;20112;-55
2022/05/16 03:25:18;;;;;;;13.73;8.18;;;;;;;15.86;63.33;95022.34;4127403;28;20130;-54
2022/05/16 03:27:21;;;;;;;13.05;8.23;;;;;;;15.84;63.50;95024.38;4125786;28;20057;-55
2022/05/16 03:29:22;;;;;;;14.65;8.65;;;;;;;15.84;63.66;95029.66;4137062;28;20192;-55
2022/05/16 03:31:24;;;;;;;11.57;8.93;;;;;;;15.83;63.62;95028.84;4143570;28;20050;-53
2022/05/16 03:33:26;;;;;;;14.40;8.68;;;;;;;15.89;63.54;95032.53;4143025;28;20093;-55
2022/05/16 03:35:28;;;;;;;10.43;8.65;;;;;;;15.93;63.40;95032.00;4143211;28;20128;-53
2022/05/16 03:37:30;;;;;;;12.43;8.98;;;;;;;15.92;63.07;95035.66;4141829;28;20120;-55
2022/05/16 03:41:52;;;;;;;12.75;8.52;;;;;;;14.43;66.81;95052.09;4143260;28;20054;-53
2022/05/16 03:43:54;;;;;;;13.85;9.05;;;;;;;13.82;69.04;95052.72;4143210;28;20474;-54
2022/05/16 03:45:56;;;;;;;16.95;9.30;;;;;;;13.31;70.62;95054.81;4143222;28;20104;-55
2022/05/16 03:47:57;;;;;;;11.95;9.45;;;;;;;13.11;71.59;95056.97;4140934;28;20054;-54
2022/05/16 03:49:59;;;;;;;16.90;9.63;;;;;;;13.20;70.89;95058.59;4126837;28;20094;-53
2022/05/16 03:52:02;;;;;;;12.50;9.38;;;;;;;13.55;70.49;95050.50;4126958;28;20058;-54
2022/05/16 03:54:04;;;;;;;12.52;9.23;;;;;;;13.89;68.90;95051.03;4125223;28;20169;-55
2022/05/16 03:56:06;;;;;;;13.82;9.38;;;;;;;14.24;68.30;95045.44;4126774;28;20062;-53
2022/05/16 03:58:07;;;;;;;12.65;7.90;;;;;;;14.42;66.59;95056.56;4131851;28;20061;-57
2022/05/16 04:00:13;;;;;;;13.10;8.27;;;;;;;14.27;66.88;95061.75;4127804;28;20148;-54
2022/05/16 04:02:15;;;;;;;12.88;8.70;;;;;;;14.10;67.65;95065.44;4126738;28;20491;-52
2022/05/16 04:04:18;;;;;;;11.15;8.90;;;;;;;13.99;68.04;95064.00;4126089;28;20130;-53
2022/05/16 04:06:20;;;;;;;12.82;8.23;;;;;;;14.06;67.48;95069.41;4127031;28;20054;-53
2022/05/16 04:08:21;;;;;;;14.70;9.98;;;;;;;14.01;67.86;95066.47;4141488;28;20791;-54
2022/05/16 04:10:24;;;;;;;15.55;12.15;;;;;;;13.88;68.41;95067.03;4142772;28;20053;-55
2022/05/16 04:12:26;;;;;;;18.48;13.23;;;;;;;13.87;68.73;95068.84;4142784;28;20132;-56
2022/05/16 04:14:27;;;;;;;26.88;21.85;;;;;;;14.06;67.87;95069.41;4142970;28;20115;-56
2022/05/16 04:16:29;;;;;;;25.17;20.00;;;;;;;14.05;67.37;95075.69;4142520;28;20097;-54
2022/05/16 04:18:32;;;;;;;20.52;16.98;;;;;;;13.95;67.87;95078.50;4142327;28;20062;-53
2022/05/16 04:20:34;;;;;;;23.08;17.80;;;;;;;14.04;67.82;95071.41;4142867;28;20052;-53
2022/05/16 04:22:36;;;;;;;25.63;16.73;;;;;;;14.16;67.32;95077.94;4129764;28;20058;-54
2022/05/16 04:24:38;;;;;;;24.17;16.25;;;;;;;14.30;67.10;95073.75;4124954;28;20199;-52
2022/05/16 04:26:40;;;;;;;16.13;13.57;;;;;;;14.53;66.47;95079.88;4126600;28;20120;-53
2022/05/16 04:28:41;;;;;;;12.77;10.98;;;;;;;14.69;65.98;95080.78;4131209;28;20116;-52
2022/05/16 04:30:43;;;;;;;16.52;11.50;;;;;;;14.98;65.01;95079.28;4142856;28;20080;-53
2022/05/16 04:32:44;;;;;;;16.90;11.75;;;;;;;15.14;64.27;95082.63;4142586;28;20127;-51
2022/05/16 04:34:46;;;;;;;21.13;11.98;;;;;;;15.08;64.35;95083.31;4142281;28;20098;-51
2022/05/16 04:36:48;;;;;;;14.23;11.32;;;;;;;15.08;64.28;95079.88;4142722;28;20092;-53
2022/05/16 04:38:50;;;;;;;15.25;10.43;;;;;;;15.24;64.47;95079.72;4140865;28;20050;-56
2022/05/16 04:43:18;;;;;;;15.68;12.70;;;;;;;15.60;62.93;95083.53;4142400;28;20120;-53
2022/05/16 04:45:21;;;;;;;24.95;19.67;;;;;;;15.49;63.09;95080.31;4142413;28;20057;-53
2022/05/16 04:47:23;;;;;;;27.63;20.80;;;;;;;15.43;63.55;95088.16;4142691;28;20050;-53
2022/05/16 04:49:24;;;;;;;29.67;23.30;;;;;;;15.47;63.38;95078.88;4140308;28;20569;-54
2022/05/16 04:51:26;;;;;;;34.97;22.95;;;;;;;15.59;63.00;95077.41;4131698;28;20785;-55
2022/05/16 04:53:28;;;;;;;23.67;20.40;;;;;;;15.73;62.74;95091.69;4140911;28;20061;-53
2022/05/16 04:55:30;;;;;;;23.77;17.58;;;;;;;15.76;63.09;95086.00;4142683;28;20477;-53
2022/05/16 04:57:32;;;;;;;21.35;17.35;;;;;;;15.83;62.69;95099.31;4142420;28;20159;-52
2022/05/16 04:59:33;;;;;;;23.80;17.10;;;;;;;15.86;62.50;95088.41;4141307;28;20050;-49
2022/05/16 05:01:35;;;;;;;16.58;13.85;;;;;;;15.93;62.26;95099.88;4141609;28;20100;-55
2022/05/16 05:03:37;;;;;;;18.98;12.38;;;;;;;16.01;62.09;95091.03;4139011;28;20050;-53
2022/05/16 05:05:39;;;;;;;19.10;13.70;;;;;;;16.10;62.14;95093.41;4133687;28;20053;-54
2022/05/16 05:07:41;;;;;;;21.00;11.75;;;;;;;16.20;61.62;95098.41;4142124;28;20533;-54
2022/05/16 05:14:32;;;;;;;16.38;11.80;;;;;;;16.63;60.77;95101.16;4142288;28;20100;-54
2022/05/16 05:16:35;;;;;;;14.98;11.30;;;;;;;16.76;60.20;95103.13;4142438;28;20048;-53
2022/05/16 05:18:39;;;;;;;17.42;12.05;;;;;;;16.70;60.79;95102.03;4140511;28;20054;-53
2022/05/16 05:20:40;;;;;;;14.05;11.68;;;;;;;16.63;60.39;95103.81;4142340;28;20116;-54
2022/05/16 05:22:44;;;;;;;15.65;11.82;;;;;;;16.52;61.00;95113.03;4128313;28;20458;-51
2022/05/16 05:24:45;;;;;;;;;;;;;;;16.45;61.18;95113.97;4124655;28;20062;-54
2022/05/16 05:26:47;;;;;;;15.13;11.20;;;;;;;16.50;61.10;95122.19;4125918;28;19926;-51
2022/05/16 05:28:49;;;;;;;14.18;11.15;;;;;;;16.65;61.16;95116.81;4133101;28;20521;-54
2022/05/16 05:30:51;;;;;;;16.23;11.43;;;;;;;16.82;60.86;95115.66;4144906;28;20049;-52
2022/05/16 05:32:53;;;;;;;13.98;10.93;;;;;;;17.03;60.26;95111.38;4145333;28;20057;-58
2022/05/16 05:34:55;;;;;;;14.20;11.00;;;;;;;17.20;59.55;95124.16;4143789;28;20207;-55
2022/05/16 05:36:56;;;;;;;20.80;11.77;;;;;;;17.29;59.31;95121.38;4145350;28;20057;-56
2022/05/16 05:38:59;;;;;;;19.00;11.98;;;;;;;17.24;59.21;95114.00;4143898;28;20082;-54
2022/05/16 05:41:00;;;;;;;12.93;11.45;;;;;;;17.01;59.12;95114.19;4144963;28;20112;-56
2022/05/16 05:43:04;;;;;;;15.25;11.07;;;;;;;16.79;60.14;95119.44;4144892;28;20061;-52
2022/05/16 05:45:07;;;;;;;15.60;10.82;;;;;;;16.80;60.37;95120.31;4144781;28;20377;-54
2022/05/16 05:47:09;;;;;;;13.70;10.77;;;;;;;16.97;60.17;95120.88;4145173;28;20452;-56
2022/05/16 05:49:12;;;;;;;17.98;11.50;;;;;;;17.13;59.36;95122.47;4144700;28;20054;-55
2022/05/16 05:51:14;;;;;;;15.00;11.27;;;;;;;17.36;59.09;95116.97;4145138;28;20049;-50
2022/05/16 05:53:16;;;;;;;16.52;11.65;;;;;;;17.45;58.50;95115.81;4143566;28;20058;-53
2022/05/16 05:55:18;;;;;;;17.67;11.82;;;;;;;17.22;59.29;95123.97;4145044;28;20367;-54
2022/05/16 05:57:21;;;;;;;17.77;11.47;;;;;;;17.14;59.52;95116.16;4145061;28;20149;-55
2022/05/16 05:59:23;;;;;;;13.80;11.38;;;;;;;17.22;59.27;95121.31;4144830;28;20487;-53
2022/05/16 06:01:26;;;;;;;18.10;11.27;;;;;;;17.42;59.34;95118.03;4140322;28;20049;-52
2022/05/16 06:03:28;;;;;;;17.23;12.13;;;;;;;17.63;58.24;95111.88;4128413;28;20054;-57
2022/05/16 06:05:30;;;;;;;16.58;11.43;;;;;;;17.57;58.67;95118.75;4128607;28;20280;-53
2022/05/16 06:07:32;;;;;;;15.32;11.05;;;;;;;17.73;58.61;95115.84;4138890;28;20085;-56
2022/05/16 06:09:34;;;;;;;13.57;11.45;;;;;;;17.95;57.55;95121.09;4143254;28;20321;-55
2022/05/16 06:11:35;;;;;;;17.08;11.63;;;;;;;17.94;57.05;95115.00;4144924;28;20049;-55
2022/05/16 06:13:38;;;;;;;18.33;10.98;;;;;;;17.86;57.32;95115.13;4145032;28;20058;-56
2022/05/16 06:15:40;;;;;;;16.38;11.70;;;;;;;18.08;56.75;95115.88;4144787;28;20164;-59
2022/05/16 06:17:43;;;;;;;19.02;11.50;;;;;;;18.29;55.65;95112.31;4144705;28;20054;-56
2022/05/16 06:19:45;;;;;;;16.17;12.18;;;;;;;18.21;56.06;95115.13;4144841;28;20654;-56
2022/05/16 06:21:47;;;;;;;22.65;13.00;;;;;;;18.27;56.58;95111.69;4144458;28;20050;-56
2022/05/16 06:23:49;;;;;;;14.00;11.90;;;;;;;18.43;56.04;95110.53;4142981;28;20453;-55
2022/05/16 06:25:51;;;;;;;15.50;11.57;;;;;;;18.52;55.73;95103.22;4144738;28;20053;-57
2022/05/16 06:27:53;;;;;;;16.63;12.75;;;;;;;18.61;55.56;95105.53;4144385;28;20109;-56
2022/05/16 06:29:55;;;;;;;15.90;12.48;;;;;;;18.77;55.54;95112.28;4144487;28;20357;-57
2022/05/16 06:31:57;;;;;;;15.45;12.85;;;;;;;18.92;54.86;95109.50;4144825;28;20081;-58
2022/05/16 06:33:59;;;;;;;17.05;11.38;;;;;;;19.04;54.46;95109.75;4144609;28;20140;-54
2022/05/16 06:36:03;;;;;;;19.60;11.65;;;;;;;18.80;54.15;95117.25;4144500;28;20058;-56
2022/05/16 06:38:10;;;;;;;15.68;11.88;;;;;;;18.59;55.06;95117.34;4142854;28;20462;-53
2022/05/16 06:40:14;;;;;;;25.35;12.25;;;;;;;18.52;55.80;95113.84;4144404;28;20058;-54
2022/05/16 06:42:15;;;;;;;24.40;11.95;;;;;;;18.42;56.00;95116.88;4144465;28;20085;-56
2022/05/16 06:44:19;;;;;;;14.40;11.88;;;;;;;18.64;55.95;95114.91;4143933;28;20061;-50
2022/05/16 06:46:20;;;;;;;17.08;11.68;;;;;;;18.95;55.33;95113.59;4144473;28;20054;-54
2022/05/16 06:48:22;;;;;;;20.77;12.05;;;;;;;19.18;55.40;95111.41;4143810;28;20058;-54
2022/05/16 06:50:24;;;;;;;18.33;11.82;;;;;;;19.16;54.52;95110.78;4144638;28;20122;-56
2022/05/16 06:52:26;;;;;;;15.32;10.98;;;;;;;19.26;54.18;95113.06;4144370;28;20054;-52
2022/05/16 06:54:28;;;;;;;17.20;11.48;;;;;;;19.37;54.94;95115.09;4142740;28;20132;-57
2022/05/16 06:56:29;;;;;;;22.92;11.07;;;;;;;19.21;53.62;95113.66;4143965;28;20115;-52
2022/05/16 06:58:31;;;;;;;18.35;9.45;;;;;;;19.38;53.45;95110.59;4144126;28;20138;-55
2022/05/16 07:00:33;;;;;;;11.73;8.48;;;;;;;19.24;51.66;95118.56;4143806;28;20533;-55
2022/05/16 07:02:35;;;;;;;13.98;8.55;;;;;;;19.10;51.15;95113.41;4137266;28;20050;-56
2022/05/16 07:04:39;;;;;;;10.32;7.88;;;;;;;19.04;52.18;95112.41;4143249;28;20463;-55
2022/05/16 07:06:41;;;;;;;16.15;8.43;;;;;;;18.95;52.00;95117.09;4144078;28;20577;-53
2022/05/16 07:08:43;;;;;;;15.48;8.50;;;;;;;18.98;51.98;95111.38;4142433;28;20133;-55
2022/05/16 07:10:46;;;;;;;13.07;7.95;;;;;;;19.01;51.50;95115.44;4144236;28;20046;-57
2022/05/16 07:12:54;;;;;;;13.05;8.27;;;;;;;18.96;51.23;95109.94;4144036;28;20105;-55
2022/05/16 07:14:56;;;;;;;12.88;8.45;;;;;;;19.07;51.12;95104.03;4144107;28;20058;-58
2022/05/16 07:16:58;;;;;;;18.95;10.23;;;;;;;19.26;50.55;95105.06;4144405;28;20381;-59
2022/05/16 07:18:59;;;;;;;20.35;10.07;;;;;;;19.47;50.36;95108.56;4143697;28;20105;-58
2022/05/16 07:21:01;;;;;;;18.55;10.57;;;;;;;19.74;50.02;95104.91;4143757;28;20058;-57
2022/05/16 07:23:03;;;;;;;16.58;9.18;;;;;;;19.99;48.82;95112.25;4142606;28;20475;-54
2022/05/16 07:25:06;;;;;;;25.52;12.55;;;;;;;19.85;49.94;95116.75;4143909;28;20124;-56
2022/05/16 07:29:28;;;;;;;27.80;13.55;;;;;;;19.87;49.63;95111.22;4143984;28;20056;-56
2022/05/16 07:31:30;;;;;;;17.38;9.20;;;;;;;19.84;49.58;95104.50;4144349;28;20054;-54
2022/05/16 07:33:32;;;;;;;15.00;10.13;;;;;;;20.10;49.65;95102.81;4143689;28;20046;-53
2022/05/16 07:35:35;;;;;;;13.65;8.13;;;;;;;20.33;50.00;95097.03;4143897;28;20053;-54
2022/05/16 07:37:37;;;;;;;17.02;8.48;;;;;;;20.51;48.34;95097.16;4143874;28;20080;-55
2022/05/16 07:39:39;;;;;;;18.73;6.63;;;;;;;20.08;48.45;95100.34;4140784;28;20277;-53
2022/05/16 07:41:40;;;;;;;16.02;9.27;;;;;;;20.12;48.87;95096.25;4143295;28;20042;-53
2022/05/16 07:43:42;;;;;;;17.80;8.85;;;;;;;20.34;48.46;95094.13;4143528;28;20058;-56
2022/05/16 07:45:44;;;;;;;12.75;7.32;;;;;;;20.61;47.93;95094.09;4143276;28;20069;-55
2022/05/16 07:47:46;;;;;;;13.73;6.60;;;;;;;20.81;46.73;95094.78;4142827;28;20061;-55
2022/05/16 07:49:50;;;;;;;13.20;6.45;;;;;;;20.81;46.36;95089.47;4127053;28;20057;-53
2022/05/16 07:51:52;;;;;;;13.85;6.68;;;;;;;20.81;46.29;95097.44;4126644;28;20101;-55
2022/05/16 07:53:55;;;;;;;10.30;5.78;;;;;;;20.89;45.80;95092.88;4125697;28;20056;-54
2022/05/16 07:55:57;;;;;;;14.63;6.50;;;;;;;20.97;45.29;95098.81;4126658;28;20054;-54
2022/05/16 07:57:59;;;;;;;9.50;5.28;;;;;;;21.18;44.16;95094.97;4126830;28;20050;-54
2022/05/16 08:00:01;;;;;;;10.25;5.93;;;;;;;21.26;43.70;95097.38;4127194;28;20120;-55
2022/05/16 08:02:03;;;;;;;11.88;5.80;;;;;;;21.41;44.83;95093.59;4130531;28;20068;-56
2022/05/16 08:04:06;;;;;;;9.27;5.00;;;;;;;21.57;43.45;95093.06;4138844;28;20097;-56
2022/05/16 08:06:08;;;;;;;8.60;4.35;;;;;;;21.73;42.43;95086.38;4142885;28;20050;-53
2022/05/16 08:10:31;;;;;;;10.18;5.63;;;;;;;21.78;42.29;95088.38;4142911;28;20050;-55
2022/05/16 08:12:35;;;;;;;12.98;4.97;;;;;;;21.65;42.36;95089.31;4143470;28;20107;-53
2022/05/16 08:14:43;;;;;;;7.18;3.95;;;;;;;21.38;39.89;95092.19;4142817;28;20104;-56
2022/05/16 08:16:45;;;;;;;5.50;2.53;;;;;;;21.54;36.89;95088.19;4142915;28;20054;-56
2022/05/16 08:18:47;;;;;;;6.38;3.00;;;;;;;21.82;37.99;95084.25;4142574;28;20061;-55
2022/05/16 08:20:50;;;;;;;6.10;3.28;;;;;;;22.08;38.44;95083.16;4142712;28;20056;-58
2022/05/16 08:22:53;;;;;;;7.95;4.63;;;;;;;22.00;40.57;95086.94;4141982;28;20073;-55
2022/05/16 08:24:55;;;;;;;10.00;4.57;;;;;;;22.08;40.88;95080.50;4141930;28;20100;-53
2022/05/16 08:27:02;;;;;;;11.15;4.82;;;;;;;21.83;41.67;95086.72;4142772;28;20060;-57
2022/05/16 08:29:04;;;;;;;;;;;;;;;21.87;41.64;95089.72;4143322;28;20058;-55
2022/05/16 08:31:07;;;;;;;8.27;4.30;;;;;;;21.98;41.35;95091.66;4142425;28;20412;-56
2022/05/16 08:33:09;;;;;;;6.10;4.40;;;;;;;22.08;39.60;95088.50;4142361;28;20092;-56
2022/05/16 08:35:12;;;;;;;12.32;3.50;;;;;;;21.92;38.17;95094.41;4142901;28;20049;-57
2022/05/16 08:40:08;;;;;;;5.28;3.35;;;;;;;21.83;36.53;95080.53;4141022;28;20537;-54
2022/05/16 08:42:08;;;;;;;5.78;2.22;;;;;;;21.52;35.60;95084.91;4141784;28;20054;-54
2022/05/16 08:44:16;;;;;;;8.98;2.40;;;;;;;21.77;34.96;95086.75;4142726;28;20054;-55
2022/05/16 08:46:34;;;;;;;5.05;2.17;;;;;;;22.07;34.30;95066.34;4142528;28;20053;-52
2022/05/16 08:48:44;;;;;;;5.80;2.30;;;;;;;22.44;34.43;95070.91;4141965;28;20046;-55
2022/05/16 08:50:53;;;;;;;5.43;1.90;;;;;;;22.59;32.20;95067.84;4142768;28;20119;-56
2022/05/16 08:53:02;;;;;;;8.25;2.28;;;;;;;22.70;30.92;95067.09;4142152;28;20069;-60
2022/05/16 08:55:11;;;;;;;2.67;1.60;;;;;;;22.87;29.64;95064.59;4141280;28;20065;-58
2022/05/16 08:57:16;;;;;;;4.80;2.00;;;;;;;23.05;31.00;95061.88;4141200;28;20053;-55
2022/05/16 08:59:24;;;;;;;5.63;1.98;;;;;;;22.92;30.99;95066.59;4142580;28;20140;-53
2022/05/16 09:01:29;;;;;;;4.38;1.65;;;;;;;22.81;31.03;95063.63;4141874;28;20049;-56
2022/05/16 09:04:00;;;;;;;5.47;2.10;;;;;;;22.62;29.66;95060.19;4142214;28;20046;-53
2022/05/16 09:06:45;;;;;;;4.00;1.70;;;;;;;22.73;30.00;95069.28;4156333;28;20053;-54
2022/05/16 09:08:57;;;;;;;26.10;6.45;;;;;;;23.02;29.98;95066.88;4093265;28;20342;-55
2022/05/16 09:11:35;;;;;;;4.57;2.10;;;;;;;23.18;29.65;95068.09;4140094;28;20204;-54
2022/05/16 09:14:09;;;;;;;3.08;1.35;;;;;;;23.35;27.82;95061.03;4144356;28;20084;-57
2022/05/16 09:16:23;;;;;;;4.10;1.55;;;;;;;23.63;27.62;95051.53;4144652;28;20450;-57
2022/05/16 09:18:40;;;;;;;4.10;2.10;;;;;;;23.82;28.19;95061.09;4145442;28;20066;-54
2022/05/16 09:21:00;;;;;;;5.82;1.90;;;;;;;23.95;28.46;95056.56;4143982;28;20120;-56
2022/05/16 09:23:20;;;;;;;3.55;1.42;;;;;;;23.97;25.81;95055.28;4142370;28;20148;-55
2022/05/16 09:25:25;;;;;;;6.75;2.50;;;;;;;24.07;25.91;95049.31;4145711;28;20058;-57
2022/05/16 09:29:53;;;;;;;2.97;2.08;;;;;;;24.19;26.47;95052.00;4160004;28;20053;-55
2022/05/16 09:32:04;;;;;;;4.50;1.60;;;;;;;24.29;26.47;95042.31;4160574;28;20204;-56
2022/05/16 09:34:09;;;;;;;6.70;2.40;;;;;;;24.24;26.94;95044.06;4161492;28;20115;-54
2022/05/16 09:36:12;;;;;;;6.50;2.92;;;;;;;23.85;27.40;95049.91;4161616;28;20056;-54
2022/05/16 09:38:14;;;;;;;3.83;1.92;;;;;;;23.44;28.08;95046.28;4159901;28;20126;-54
2022/05/16 09:40:16;;;;;;;5.70;2.53;;;;;;;23.37;26.67;95042.91;4161615;28;20563;-55
2022/05/16 09:42:28;;;;;;;3.93;1.60;;;;;;;23.48;25.70;95049.31;4160474;28;20075;-53
2022/05/16 09:44:35;;;;;;;4.70;1.75;;;;;;;23.77;25.37;95039.59;4160309;28;20469;-59
2022/05/16 09:46:42;;;;;;;4.60;2.10;;;;;;;23.57;27.54;95039.09;4160598;28;20057;-56
2022/05/16 09:48:44;;;;;;;6.43;2.38;;;;;;;23.75;27.42;95033.63;4151721;28;20546;-57
2022/05/16 09:51:04;;;;;;;5.20;1.70;;;;;;;23.69;26.25;95034.56;4143899;28;20116;-54
2022/05/16 09:53:13;;;;;;;5.38;1.73;;;;;;;23.85;26.66;95035.75;4157083;28;20100;-56
2022/05/16 09:55:33;;;;;;;3.08;1.90;;;;;;;24.01;27.52;95026.19;4145451;28;20524;-55
2022/05/16 09:57:40;;;;;;;6.22;1.88;;;;;;;23.87;27.11;95020.28;4144958;28;20065;-55
2022/05/16 09:59:48;;;;;;;5.70;2.20;;;;;;;23.60;28.33;95022.59;4160234;28;20069;-57
2022/05/16 10:01:55;;;;;;;4.65;1.60;;;;;;;23.39;27.87;95027.44;4145055;28;20073;-56
2022/05/16 10:04:21;;;;;;;7.20;2.10;;;;;;;23.18;28.05;95022.66;4141436;28;20088;-58